Time;durP1;ratioP1;P1;durP2;ratioP2;P2;SDS_P1;SDS_P2;PMS_P1;PMS_P2;Temp;Humidity;BMP_temperature;BMP_pressure;BME280_temperature;BME280_humidity;BME280_pressure;Samples;Min_cycle;Max_cycle;Signal;HPM_P1;HPM_P2
2022/03/17 00:00:07;;;;;;;28.63;20.83;;;;;;;;;;5030361;28;20048;-87
2022/03/17 00:02:33;;;;;;;28.38;20.23;;;;;;;;;;5028893;28;20412;-87
2022/03/17 00:04:59;;;;;;;31.27;20.85;;;;;;;;;;5022395;28;20120;-88
2022/03/17 00:07:25;;;;;;;30.65;20.42;;;;;;;;;;5033345;28;20665;-87
2022/03/17 00:09:51;;;;;;;29.73;20.90;;;;;;;;;;5032826;28;20041;-87
2022/03/17 00:12:17;;;;;;;30.75;20.92;;;;;;;;;;5032486;28;20091;-89
2022/03/17 00:14:43;;;;;;;28.67;21.45;;;;;;;;;;5024485;28;20416;-87
2022/03/17 00:17:09;;;;;;;31.83;21.42;;;;;;;;;;5028644;28;20045;-87
2022/03/17 00:19:36;;;;;;;29.63;21.00;;;;;;;;;;5013849;28;20131;-86
2022/03/17 00:22:08;;;;;;;32.50;21.20;;;;;;;;;;5013207;28;20137;-87
2022/03/17 00:24:36;;;;;;;33.17;21.13;;;;;;;;;;5019492;28;20044;-87
2022/03/17 00:27:03;;;;;;;29.40;20.55;;;;;;;;;;5013195;28;20120;-86
2022/03/17 00:29:29;;;;;;;31.17;21.15;;;;;;;;;;5034360;28;20037;-87
2022/03/17 00:31:55;;;;;;;31.33;21.63;;;;;;;;;;5032774;28;20120;-87
2022/03/17 00:34:21;;;;;;;29.30;20.00;;;;;;;;;;5032834;28;20083;-87
2022/03/17 00:36:47;;;;;;;30.17;20.27;;;;;;;;;;5031362;28;20037;-86
2022/03/17 00:39:15;;;;;;;28.25;20.30;;;;;;;;;;5016837;28;20045;-85
2022/03/17 00:41:41;;;;;;;32.15;21.13;;;;;;;;;;5015401;28;20061;-87
2022/03/17 00:44:07;;;;;;;31.88;21.48;;;;;;;;;;5015686;28;20099;-86
2022/03/17 00:46:33;;;;;;;28.60;20.90;;;;;;;;;;5031927;28;20042;-87
2022/03/17 00:48:59;;;;;;;29.90;20.83;;;;;;;;;;5033278;28;20048;-87
2022/03/17 00:51:26;;;;;;;34.55;21.08;;;;;;;;;;5016777;28;20040;-87
2022/03/17 00:53:52;;;;;;;32.95;21.58;;;;;;;;;;5032898;28;20048;-87
2022/03/17 00:56:18;;;;;;;32.60;21.48;;;;;;;;;;5032005;28;20469;-87
2022/03/17 00:58:48;;;;;;;30.88;21.23;;;;;;;;;;5031474;28;20475;-87
2022/03/17 01:01:18;;;;;;;30.00;20.52;;;;;;;;;;5032344;28;20052;-87
2022/03/17 01:03:45;;;;;;;29.92;21.10;;;;;;;;;;5015535;28;20071;-86
2022/03/17 01:06:11;;;;;;;29.58;20.65;;;;;;;;;;5031616;28;20439;-87
2022/03/17 01:08:37;;;;;;;31.15;22.08;;;;;;;;;;5031990;28;20033;-86
2022/03/17 01:11:04;;;;;;;32.35;22.15;;;;;;;;;;5032002;28;20124;-87
2022/03/17 01:13:30;;;;;;;30.70;21.55;;;;;;;;;;5032587;28;20037;-86
2022/03/17 01:15:56;;;;;;;32.38;21.23;;;;;;;;;;5028180;28;20192;-87
2022/03/17 01:18:22;;;;;;;31.52;20.83;;;;;;;;;;4996062;28;20080;-87
2022/03/17 01:20:49;;;;;;;30.77;21.70;;;;;;;;;;5011830;28;20127;-87
2022/03/17 01:23:15;;;;;;;30.60;22.02;;;;;;;;;;5028593;28;20079;-86
2022/03/17 01:25:41;;;;;;;31.30;21.70;;;;;;;;;;4994770;28;20084;-85
2022/03/17 01:28:07;;;;;;;30.50;20.70;;;;;;;;;;4995448;28;20041;-88
2022/03/17 01:30:35;;;;;;;31.08;20.67;;;;;;;;;;5012928;28;20038;-86
2022/03/17 01:33:01;;;;;;;30.52;20.77;;;;;;;;;;5000862;28;20045;-88
2022/03/17 01:35:26;;;;;;;31.30;21.38;;;;;;;;;;5032795;28;20043;-87
2022/03/17 01:37:52;;;;;;;29.65;19.90;;;;;;;;;;5039720;28;20049;-88
2022/03/17 01:40:22;;;;;;;30.70;22.13;;;;;;;;;;5032151;28;20041;-88
2022/03/17 01:42:47;;;;;;;34.00;21.00;;;;;;;;;;5033084;28;20048;-87
2022/03/17 01:45:15;;;;;;;31.45;20.17;;;;;;;;;;5032962;28;20471;-87
2022/03/17 01:47:41;;;;;;;33.05;21.70;;;;;;;;;;5033636;28;20033;-86
2022/03/17 01:50:09;;;;;;;30.67;21.30;;;;;;;;;;5033059;28;20521;-88
2022/03/17 01:52:35;;;;;;;33.53;22.58;;;;;;;;;;5029667;28;20042;-87
2022/03/17 01:55:02;;;;;;;32.17;22.27;;;;;;;;;;5015215;28;20061;-87
2022/03/17 01:57:28;;;;;;;34.33;22.65;;;;;;;;;;5028299;28;20149;-87
2022/03/17 01:59:54;;;;;;;30.23;22.10;;;;;;;;;;5013155;28;20070;-88
2022/03/17 02:02:20;;;;;;;32.75;22.30;;;;;;;;;;5013441;28;20045;-88
2022/03/17 02:04:47;;;;;;;32.63;22.70;;;;;;;;;;5028249;28;20101;-88
2022/03/17 02:07:14;;;;;;;30.85;21.70;;;;;;;;;;5029800;28;20494;-87
2022/03/17 02:09:40;;;;;;;32.35;22.38;;;;;;;;;;5029859;28;20038;-88
2022/03/17 02:14:51;;;;;;;;;;;;;;;;;;5016064;28;20046;-87
2022/03/17 02:17:18;;;;;;;30.15;22.08;;;;;;;;;;5011770;28;19917;-87
2022/03/17 02:19:44;;;;;;;33.08;22.45;;;;;;;;;;5029439;28;20137;-88
2022/03/17 02:22:14;;;;;;;32.15;21.70;;;;;;;;;;5016801;28;20044;-88
2022/03/17 02:27:31;;;;;;;30.63;21.42;;;;;;;;;;5015227;28;20046;-88
2022/03/17 02:29:57;;;;;;;33.42;22.77;;;;;;;;;;5028244;28;20488;-86
2022/03/17 02:32:23;;;;;;;32.92;21.83;;;;;;;;;;5028427;28;20490;-87
2022/03/17 02:34:49;;;;;;;32.55;23.08;;;;;;;;;;5033269;28;20042;-87
2022/03/17 02:37:16;;;;;;;31.20;22.05;;;;;;;;;;5028420;28;20045;-88
2022/03/17 02:39:42;;;;;;;33.35;22.17;;;;;;;;;;5036278;28;20120;-86
2022/03/17 02:42:10;;;;;;;33.15;22.00;;;;;;;;;;5031519;28;20076;-87
2022/03/17 02:44:36;;;;;;;31.38;22.20;;;;;;;;;;5035934;28;20037;-88
2022/03/17 02:47:03;;;;;;;30.08;21.13;;;;;;;;;;5037969;28;20040;-88
2022/03/17 02:49:29;;;;;;;32.22;22.25;;;;;;;;;;5037369;28;20034;-87
2022/03/17 02:51:56;;;;;;;32.00;22.80;;;;;;;;;;5035159;28;20120;-87
2022/03/17 02:54:22;;;;;;;32.90;22.52;;;;;;;;;;5024107;28;20048;-87
2022/03/17 02:56:48;;;;;;;35.08;22.15;;;;;;;;;;5016252;28;20556;-86
2022/03/17 02:59:14;;;;;;;32.33;22.42;;;;;;;;;;5032417;28;20640;-88
2022/03/17 03:01:40;;;;;;;31.50;22.77;;;;;;;;;;5033043;28;20049;-87
2022/03/17 03:04:06;;;;;;;33.45;22.48;;;;;;;;;;5025515;28;20049;-88
2022/03/17 03:06:32;;;;;;;30.85;21.92;;;;;;;;;;5034425;28;20033;-87
2022/03/17 03:08:59;;;;;;;32.80;22.23;;;;;;;;;;5036079;28;20064;-86
2022/03/17 03:11:25;;;;;;;31.30;21.67;;;;;;;;;;5036182;28;20037;-88
2022/03/17 03:13:51;;;;;;;32.10;22.90;;;;;;;;;;5036935;28;20064;-87
2022/03/17 03:16:17;;;;;;;32.65;21.88;;;;;;;;;;5035812;28;20045;-88
2022/03/17 03:18:44;;;;;;;31.80;21.77;;;;;;;;;;5035331;28;20076;-89
2022/03/17 03:21:10;;;;;;;34.50;23.35;;;;;;;;;;5033365;28;20528;-87
2022/03/17 03:23:37;;;;;;;31.02;23.52;;;;;;;;;;5036539;28;20092;-88
2022/03/17 03:26:03;;;;;;;32.13;23.90;;;;;;;;;;5036260;28;20121;-86
2022/03/17 03:28:29;;;;;;;36.08;24.15;;;;;;;;;;5036086;28;20041;-87
2022/03/17 03:30:55;;;;;;;30.98;22.30;;;;;;;;;;5035437;28;20409;-87
2022/03/17 03:33:21;;;;;;;33.75;23.05;;;;;;;;;;5036345;28;20053;-87
2022/03/17 03:38:31;;;;;;;34.25;23.85;;;;;;;;;;5032694;28;20045;-87
2022/03/17 03:40:59;;;;;;;35.38;24.95;;;;;;;;;;5033560;28;20041;-88
2022/03/17 03:43:25;;;;;;;33.90;23.75;;;;;;;;;;5033808;28;20042;-88
2022/03/17 03:45:51;;;;;;;32.53;22.88;;;;;;;;;;5016857;28;20052;-88
2022/03/17 03:48:18;;;;;;;31.35;23.50;;;;;;;;;;5033782;28;20045;-88
2022/03/17 03:50:46;;;;;;;34.40;25.02;;;;;;;;;;5033468;28;20509;-86
2022/03/17 03:53:12;;;;;;;36.28;24.38;;;;;;;;;;5034711;28;20037;-87
2022/03/17 03:55:38;;;;;;;32.47;23.23;;;;;;;;;;5035065;28;20597;-87
2022/03/17 03:58:04;;;;;;;33.33;23.80;;;;;;;;;;5034398;28;20156;-87
2022/03/17 04:00:33;;;;;;;33.97;23.83;;;;;;;;;;5034555;28;20038;-87
2022/03/17 04:03:00;;;;;;;35.50;23.65;;;;;;;;;;5034381;28;20585;-87
2022/03/17 04:05:32;;;;;;;33.22;24.00;;;;;;;;;;5033430;28;20041;-87
2022/03/17 04:07:59;;;;;;;31.95;23.38;;;;;;;;;;5032809;28;20041;-87
2022/03/17 04:10:25;;;;;;;33.13;24.25;;;;;;;;;;5033537;28;20096;-88
2022/03/17 04:12:51;;;;;;;35.22;24.17;;;;;;;;;;5033008;28;20045;-85
2022/03/17 04:15:17;;;;;;;34.58;24.15;;;;;;;;;;5032243;28;20045;-86
2022/03/17 04:17:43;;;;;;;34.60;24.63;;;;;;;;;;5032726;28;20416;-87
2022/03/17 04:20:10;;;;;;;33.67;25.13;;;;;;;;;;5033827;28;20054;-86
2022/03/17 04:22:36;;;;;;;37.58;25.55;;;;;;;;;;5032232;28;20589;-87
2022/03/17 04:25:02;;;;;;;33.55;24.52;;;;;;;;;;5033068;28;20034;-87
2022/03/17 04:27:28;;;;;;;36.50;26.10;;;;;;;;;;5031991;28;20046;-86
2022/03/17 04:29:54;;;;;;;38.90;27.95;;;;;;;;;;5027741;28;20124;-85
2022/03/17 04:32:20;;;;;;;39.28;28.40;;;;;;;;;;5012599;28;20041;-85
2022/03/17 04:34:46;;;;;;;37.33;26.25;;;;;;;;;;5012793;28;20084;-85
2022/03/17 04:37:12;;;;;;;43.08;30.30;;;;;;;;;;5013014;28;20045;-85
2022/03/17 04:39:38;;;;;;;42.25;30.35;;;;;;;;;;5011952;28;20034;-86
2022/03/17 04:42:04;;;;;;;44.83;32.20;;;;;;;;;;5012237;28;20042;-86
2022/03/17 04:44:31;;;;;;;43.92;32.10;;;;;;;;;;5012569;28;20054;-84
2022/03/17 04:46:57;;;;;;;46.20;33.90;;;;;;;;;;5012703;28;20474;-84
2022/03/17 04:49:23;;;;;;;47.85;32.33;;;;;;;;;;5012737;28;20037;-84
2022/03/17 04:51:49;;;;;;;50.03;34.70;;;;;;;;;;5012544;28;20038;-84
2022/03/17 04:54:15;;;;;;;47.03;33.78;;;;;;;;;;5022438;28;20048;-84
2022/03/17 04:56:41;;;;;;;50.15;36.03;;;;;;;;;;5031980;28;20098;-85
2022/03/17 04:59:07;;;;;;;53.17;36.50;;;;;;;;;;5033014;28;20061;-85
2022/03/17 05:01:33;;;;;;;55.85;38.22;;;;;;;;;;5032657;28;20083;-84
2022/03/17 05:03:59;;;;;;;54.63;38.17;;;;;;;;;;5023100;28;20046;-85
2022/03/17 05:06:25;;;;;;;59.47;40.55;;;;;;;;;;5012510;28;20042;-84
2022/03/17 05:08:51;;;;;;;59.45;41.42;;;;;;;;;;5031262;28;20049;-84
2022/03/17 05:11:18;;;;;;;59.17;41.78;;;;;;;;;;5028118;28;20482;-85
2022/03/17 05:13:44;;;;;;;64.10;42.13;;;;;;;;;;5029245;28;20111;-84
2022/03/17 05:16:10;;;;;;;61.10;42.10;;;;;;;;;;5031955;28;20132;-86
2022/03/17 05:18:37;;;;;;;66.63;43.33;;;;;;;;;;5014897;28;20476;-86
2022/03/17 05:21:03;;;;;;;68.47;45.28;;;;;;;;;;5031020;28;20064;-86
2022/03/17 05:23:31;;;;;;;65.03;43.63;;;;;;;;;;5030904;28;20041;-85
2022/03/17 05:25:57;;;;;;;75.80;47.60;;;;;;;;;;5014535;28;20400;-85
2022/03/17 05:28:23;;;;;;;81.10;49.53;;;;;;;;;;5031515;28;20091;-85
2022/03/17 05:30:49;;;;;;;66.53;42.70;;;;;;;;;;5015310;28;20045;-87
2022/03/17 05:33:16;;;;;;;40.47;25.83;;;;;;;;;;5031938;28;20046;-85
2022/03/17 05:35:43;;;;;;;30.65;20.15;;;;;;;;;;5032559;28;20052;-91
2022/03/17 05:38:09;;;;;;;19.45;13.30;;;;;;;;;;5031595;28;20048;-87
2022/03/17 05:40:36;;;;;;;18.38;13.05;;;;;;;;;;5015301;28;20127;-86
2022/03/17 05:43:03;;;;;;;19.63;13.00;;;;;;;;;;5031260;28;20041;-87
2022/03/17 05:45:29;;;;;;;17.08;12.27;;;;;;;;;;5014670;28;20511;-88
2022/03/17 05:47:57;;;;;;;14.05;10.02;;;;;;;;;;5031501;28;20043;-84
2022/03/17 05:50:24;;;;;;;13.63;9.32;;;;;;;;;;5031798;28;20041;-89
2022/03/17 05:52:50;;;;;;;14.63;9.68;;;;;;;;;;5049316;28;20085;-86
2022/03/17 05:55:17;;;;;;;14.55;9.70;;;;;;;;;;5034694;28;20516;-84
2022/03/17 05:57:45;;;;;;;14.75;10.15;;;;;;;;;;5035452;28;20040;-85
2022/03/17 06:00:12;;;;;;;16.05;11.10;;;;;;;;;;5051597;28;20049;-90
2022/03/17 06:02:38;;;;;;;15.48;10.32;;;;;;;;;;5051295;28;20540;-85
2022/03/17 06:05:05;;;;;;;16.98;11.98;;;;;;;;;;5051307;28;20036;-84
2022/03/17 06:07:38;;;;;;;16.77;11.38;;;;;;;;;;5051504;28;20395;-85
2022/03/17 06:10:05;;;;;;;19.48;12.23;;;;;;;;;;5035142;28;20041;-85
2022/03/17 06:12:31;;;;;;;20.50;12.82;;;;;;;;;;5051333;28;20087;-86
2022/03/17 06:14:57;;;;;;;17.95;12.85;;;;;;;;;;5034638;28;20044;-84
2022/03/17 06:17:23;;;;;;;24.27;15.18;;;;;;;;;;5034794;28;20175;-85
2022/03/17 06:19:50;;;;;;;25.23;15.25;;;;;;;;;;5043880;28;20048;-85
2022/03/17 06:22:16;;;;;;;20.75;14.18;;;;;;;;;;5032317;28;20046;-84
2022/03/17 06:24:42;;;;;;;24.05;15.27;;;;;;;;;;5035514;28;20037;-83
2022/03/17 06:27:08;;;;;;;22.23;14.98;;;;;;;;;;5035057;28;20048;-85
2022/03/17 06:29:34;;;;;;;23.55;13.68;;;;;;;;;;5035224;28;20042;-84
2022/03/17 06:32:00;;;;;;;23.15;13.20;;;;;;;;;;5034907;28;20540;-86
2022/03/17 06:48:19;;;;;;;19.35;10.80;;;;;;;;;;5036452;28;20251;-84
2022/03/17 06:58:20;;;;;;;20.55;9.27;;;;;;;;;;5007190;28;20599;-84
2022/03/17 07:04:38;;;;;;;13.80;7.97;;;;;;;;;;5003242;28;20402;-85
2022/03/17 07:08:01;;;;;;;13.70;8.60;;;;;;;;;;4967409;28;20073;-85
2022/03/17 07:17:57;;;;;;;13.18;5.93;;;;;;;;;;4934798;29;20129;-85
2022/03/17 07:20:27;;;;;;;13.93;6.38;;;;;;;;;;4928958;29;20063;-85
2022/03/17 07:23:00;;;;;;;16.90;5.70;;;;;;;;;;4987130;28;20045;-84
2022/03/17 07:26:22;;;;;;;16.50;6.15;;;;;;;;;;5000023;28;20053;-85
2022/03/17 07:29:10;;;;;;;14.10;4.88;;;;;;;;;;5003349;28;20073;-84
2022/03/17 07:32:11;;;;;;;11.25;4.45;;;;;;;;;;5018694;28;20042;-87
2022/03/17 07:45:34;;;;;;;9.60;3.42;;;;;;;;;;4982732;28;20044;-84
2022/03/17 07:54:47;;;;;;;14.98;3.60;;;;;;;;;;4899991;29;20052;-87
2022/03/17 08:07:49;;;;;;;9.98;2.63;;;;;;;;;;4933837;29;20179;-86
2022/03/17 08:17:11;;;;;;;14.25;3.10;;;;;;;;;;4951987;29;20086;-85
2022/03/17 08:20:19;;;;;;;12.55;2.42;;;;;;;;;;4933160;29;20055;-86
2022/03/17 08:22:56;;;;;;;11.82;2.78;;;;;;;;;;4945103;28;20051;-86
2022/03/17 08:25:29;;;;;;;13.98;2.40;;;;;;;;;;4968807;28;20523;-85
2022/03/17 08:28:08;;;;;;;15.73;2.55;;;;;;;;;;5012512;28;20370;-86
2022/03/17 08:30:52;;;;;;;16.77;3.17;;;;;;;;;;5038163;28;20449;-85
2022/03/17 08:33:28;;;;;;;10.48;2.17;;;;;;;;;;5047680;28;20052;-84
2022/03/17 08:36:00;;;;;;;14.70;2.42;;;;;;;;;;5026525;28;20069;-85
2022/03/17 08:38:52;;;;;;;12.57;2.67;;;;;;;;;;5037758;28;20543;-84
2022/03/17 08:41:51;;;;;;;14.10;2.75;;;;;;;;;;5012651;28;20184;-84
2022/03/17 08:44:17;;;;;;;11.30;2.92;;;;;;;;;;5011924;28;20097;-88
2022/03/17 08:49:42;;;;;;;15.52;2.78;;;;;;;;;;5012696;28;20326;-86
2022/03/17 08:52:12;;;;;;;11.77;2.42;;;;;;;;;;5021751;28;20627;-81
2022/03/17 08:54:55;;;;;;;11.95;2.10;;;;;;;;;;5011360;28;20048;-86
2022/03/17 08:57:41;;;;;;;13.70;2.70;;;;;;;;;;5032637;28;20044;-84
2022/03/17 09:00:08;;;;;;;13.65;2.35;;;;;;;;;;5030077;28;20045;-87
2022/03/17 09:03:03;;;;;;;10.77;2.33;;;;;;;;;;5029959;28;20045;-85
2022/03/17 09:05:45;;;;;;;10.93;2.38;;;;;;;;;;5022049;28;20042;-86
2022/03/17 09:08:43;;;;;;;9.63;2.25;;;;;;;;;;5027065;28;20103;-85
2022/03/17 09:11:12;;;;;;;11.60;2.53;;;;;;;;;;4995904;28;20080;-87
2022/03/17 09:13:41;;;;;;;9.38;2.72;;;;;;;;;;5025480;28;20088;-84
2022/03/17 09:16:29;;;;;;;13.13;2.65;;;;;;;;;;5015903;28;20409;-86
2022/03/17 09:19:24;;;;;;;17.05;2.90;;;;;;;;;;5025016;28;20041;-86
2022/03/17 09:21:52;;;;;;;8.65;2.33;;;;;;;;;;4997484;28;20053;-87
2022/03/17 09:24:23;;;;;;;14.13;2.95;;;;;;;;;;4997903;28;20112;-88
2022/03/17 09:26:55;;;;;;;11.15;2.20;;;;;;;;;;5013526;28;20040;-85
2022/03/17 09:29:28;;;;;;;12.77;2.88;;;;;;;;;;5033056;28;20037;-84
2022/03/17 09:32:37;;;;;;;10.23;2.47;;;;;;;;;;4963468;28;20481;-88
2022/03/17 09:35:29;;;;;;;11.20;2.53;;;;;;;;;;4961919;28;20518;-87
2022/03/17 09:38:02;;;;;;;;;;;;;;;;;;5013658;28;20400;-86
2022/03/17 09:40:29;;;;;;;12.85;2.67;;;;;;;;;;5031787;28;20060;-87
2022/03/17 09:45:43;;;;;;;13.32;3.00;;;;;;;;;;5021451;28;20407;-83
2022/03/17 09:48:25;;;;;;;9.35;2.65;;;;;;;;;;5044755;28;20452;-88
2022/03/17 09:51:15;;;;;;;14.15;2.80;;;;;;;;;;5039289;28;20120;-87
2022/03/17 09:54:00;;;;;;;12.63;3.22;;;;;;;;;;5039705;28;20508;-87
2022/03/17 09:56:27;;;;;;;14.27;3.15;;;;;;;;;;5012336;28;20471;-86
2022/03/17 09:58:54;;;;;;;11.90;3.03;;;;;;;;;;5034440;28;20497;-84
2022/03/17 10:01:21;;;;;;;15.75;3.17;;;;;;;;;;5034045;28;20064;-85
2022/03/17 10:03:48;;;;;;;13.98;3.35;;;;;;;;;;5034594;28;20444;-86
2022/03/17 10:06:17;;;;;;;10.43;3.55;;;;;;;;;;5034376;28;20079;-86
2022/03/17 10:08:45;;;;;;;13.45;2.80;;;;;;;;;;5035055;28;20112;-88
2022/03/17 10:11:14;;;;;;;14.52;3.28;;;;;;;;;;5031955;28;20050;-86
2022/03/17 10:13:45;;;;;;;10.07;2.70;;;;;;;;;;5016464;28;20402;-87
2022/03/17 10:16:31;;;;;;;12.80;2.90;;;;;;;;;;5013543;28;20128;-86
2022/03/17 10:19:01;;;;;;;12.85;2.70;;;;;;;;;;5008419;28;20069;-85
2022/03/17 10:21:48;;;;;;;12.13;2.60;;;;;;;;;;5016527;28;20045;-85
2022/03/17 10:24:17;;;;;;;14.35;2.55;;;;;;;;;;5025731;28;20046;-87
2022/03/17 10:26:47;;;;;;;11.18;2.20;;;;;;;;;;5023517;28;20076;-86
2022/03/17 10:29:22;;;;;;;11.60;2.10;;;;;;;;;;5016425;28;20061;-86
2022/03/17 10:32:14;;;;;;;12.95;2.45;;;;;;;;;;5012189;28;20072;-86
2022/03/17 10:34:47;;;;;;;10.10;2.10;;;;;;;;;;5049076;28;20049;-86
2022/03/17 10:37:15;;;;;;;13.00;2.50;;;;;;;;;;5033033;28;20075;-85
2022/03/17 10:39:42;;;;;;;10.57;2.00;;;;;;;;;;5027725;28;20034;-86
2022/03/17 10:42:10;;;;;;;9.77;2.47;;;;;;;;;;5028051;28;20112;-85
2022/03/17 10:44:40;;;;;;;7.80;2.17;;;;;;;;;;5024454;28;20041;-85
2022/03/17 10:47:08;;;;;;;9.13;1.73;;;;;;;;;;5024812;28;20041;-86
2022/03/17 10:49:36;;;;;;;14.80;2.28;;;;;;;;;;5026592;28;20486;-87
2022/03/17 10:52:02;;;;;;;8.93;2.25;;;;;;;;;;5003074;28;20041;-88
2022/03/17 10:54:32;;;;;;;8.27;2.45;;;;;;;;;;5018948;28;20104;-86
2022/03/17 10:57:06;;;;;;;10.48;2.20;;;;;;;;;;4997535;28;20428;-86
2022/03/17 10:59:43;;;;;;;10.20;2.15;;;;;;;;;;5029940;28;20097;-87
2022/03/17 11:02:10;;;;;;;8.20;2.00;;;;;;;;;;4999140;28;20037;-85
2022/03/17 11:04:37;;;;;;;7.05;1.90;;;;;;;;;;5032050;28;20037;-86
2022/03/17 11:07:07;;;;;;;8.25;1.92;;;;;;;;;;5014119;28;20042;-88
2022/03/17 11:09:38;;;;;;;10.02;2.13;;;;;;;;;;5018498;28;20169;-86
2022/03/17 11:12:05;;;;;;;12.25;2.42;;;;;;;;;;5032094;28;20065;-87
2022/03/17 11:14:32;;;;;;;7.32;1.92;;;;;;;;;;5030868;28;20521;-85
2022/03/17 11:16:59;;;;;;;10.13;2.30;;;;;;;;;;5031049;28;20038;-86
2022/03/17 11:19:25;;;;;;;9.85;2.42;;;;;;;;;;5024132;28;20656;-87
2022/03/17 11:22:04;;;;;;;9.80;2.45;;;;;;;;;;5013572;28;20042;-87
2022/03/17 11:24:30;;;;;;;7.97;2.13;;;;;;;;;;5019458;28;20623;-88
2022/03/17 11:27:13;;;;;;;9.55;2.22;;;;;;;;;;5014274;28;20551;-86
2022/03/17 11:29:40;;;;;;;8.77;2.00;;;;;;;;;;5013650;28;20042;-87
2022/03/17 11:32:09;;;;;;;6.00;1.92;;;;;;;;;;5013063;28;20480;-87
2022/03/17 11:34:38;;;;;;;10.35;2.05;;;;;;;;;;5014062;28;20049;-87
2022/03/17 11:37:15;;;;;;;10.90;2.40;;;;;;;;;;5013896;28;20041;-88
2022/03/17 11:40:00;;;;;;;9.60;2.50;;;;;;;;;;5013404;28;20073;-88
2022/03/17 11:42:30;;;;;;;9.23;2.20;;;;;;;;;;5013149;28;20077;-87
2022/03/17 11:45:34;;;;;;;10.38;2.40;;;;;;;;;;5013275;28;20042;-87
2022/03/17 11:48:02;;;;;;;8.95;2.35;;;;;;;;;;5014416;28;20405;-86
2022/03/17 11:50:32;;;;;;;7.55;2.28;;;;;;;;;;5013764;28;20393;-88
2022/03/17 11:53:02;;;;;;;8.18;2.45;;;;;;;;;;5013492;28;20064;-89
2022/03/17 11:55:36;;;;;;;7.95;2.10;;;;;;;;;;5013412;28;20046;-88
2022/03/17 11:58:23;;;;;;;9.35;2.47;;;;;;;;;;5016185;28;20092;-89
2022/03/17 12:00:53;;;;;;;7.38;1.83;;;;;;;;;;5029697;28;20082;-91
2022/03/17 12:03:27;;;;;;;8.27;2.22;;;;;;;;;;4997247;28;20490;-88
2022/03/17 12:06:08;;;;;;;9.88;2.42;;;;;;;;;;5010700;28;20081;-87
2022/03/17 12:08:41;;;;;;;8.32;2.38;;;;;;;;;;5012697;28;20038;-88
2022/03/17 12:11:08;;;;;;;9.15;2.00;;;;;;;;;;5014396;28;20042;-88
2022/03/17 12:13:37;;;;;;;11.57;2.85;;;;;;;;;;5013039;28;20096;-88
2022/03/17 12:16:07;;;;;;;10.30;2.25;;;;;;;;;;5039643;28;20413;-84
2022/03/17 12:18:52;;;;;;;10.13;2.22;;;;;;;;;;5014135;28;20045;-87
2022/03/17 12:21:18;;;;;;;7.65;2.33;;;;;;;;;;5026508;28;20284;-89
2022/03/17 12:23:45;;;;;;;10.10;2.22;;;;;;;;;;5030771;28;20525;-89
2022/03/17 12:26:15;;;;;;;9.82;2.20;;;;;;;;;;5021419;28;20128;-89
2022/03/17 12:28:45;;;;;;;9.43;2.80;;;;;;;;;;5030586;28;20046;-88
2022/03/17 12:31:11;;;;;;;11.18;2.50;;;;;;;;;;5015367;28;20048;-88
2022/03/17 12:33:39;;;;;;;8.50;2.20;;;;;;;;;;5027341;28;20050;-88
2022/03/17 12:36:05;;;;;;;9.40;2.35;;;;;;;;;;5027162;28;20299;-86
2022/03/17 12:38:32;;;;;;;10.73;2.50;;;;;;;;;;5020392;28;20567;-90
2022/03/17 12:41:00;;;;;;;9.43;2.05;;;;;;;;;;5010340;28;20131;-87
2022/03/17 12:43:26;;;;;;;9.90;2.13;;;;;;;;;;4994327;28;20077;-87
2022/03/17 12:45:52;;;;;;;9.38;2.28;;;;;;;;;;4993831;28;20038;-88
2022/03/17 12:48:19;;;;;;;7.63;1.95;;;;;;;;;;5014949;28;20338;-88
2022/03/17 12:50:46;;;;;;;8.27;2.00;;;;;;;;;;5012897;28;20037;-87
2022/03/17 12:53:12;;;;;;;8.82;2.20;;;;;;;;;;5029268;28;20041;-87
2022/03/17 12:55:38;;;;;;;8.13;2.92;;;;;;;;;;5028080;28;20050;-86
2022/03/17 12:58:04;;;;;;;9.00;2.03;;;;;;;;;;5047566;28;20041;-88
2022/03/17 13:00:31;;;;;;;9.38;2.20;;;;;;;;;;5043398;28;20544;-87
2022/03/17 13:03:01;;;;;;;8.02;2.17;;;;;;;;;;5013999;28;20084;-87
2022/03/17 13:08:14;;;;;;;11.90;2.00;;;;;;;;;;5028476;28;20037;-85
2022/03/17 13:16:11;;;;;;;10.75;2.67;;;;;;;;;;5029358;28;20045;-87
2022/03/17 13:18:45;;;;;;;9.60;2.13;;;;;;;;;;5023181;28;20088;-88
2022/03/17 13:21:15;;;;;;;7.57;1.87;;;;;;;;;;4993918;28;20382;-87
2022/03/17 13:23:41;;;;;;;10.65;2.40;;;;;;;;;;4994661;28;20296;-88
2022/03/17 13:26:07;;;;;;;7.78;1.98;;;;;;;;;;5026444;28;20049;-86
2022/03/17 13:28:33;;;;;;;7.55;1.70;;;;;;;;;;5038949;28;20125;-88
2022/03/17 13:30:59;;;;;;;8.18;1.77;;;;;;;;;;5046755;28;20061;-88
2022/03/17 13:33:26;;;;;;;8.52;1.83;;;;;;;;;;5029024;28;20048;-87
2022/03/17 13:35:53;;;;;;;8.02;1.92;;;;;;;;;;5014895;28;20076;-86
2022/03/17 13:38:20;;;;;;;9.35;1.80;;;;;;;;;;4993128;28;20045;-88
2022/03/17 13:40:48;;;;;;;6.40;1.75;;;;;;;;;;5041986;28;20181;-90
2022/03/17 13:43:19;;;;;;;6.97;2.08;;;;;;;;;;5003959;28;20064;-88
2022/03/17 13:45:46;;;;;;;9.38;2.08;;;;;;;;;;5030115;28;20041;-87
2022/03/17 13:48:13;;;;;;;5.45;1.40;;;;;;;;;;5009543;28;20056;-89
2022/03/17 13:50:48;;;;;;;10.15;2.05;;;;;;;;;;5015713;28;20037;-88
2022/03/17 13:53:15;;;;;;;8.63;1.90;;;;;;;;;;5028718;28;20041;-88
2022/03/17 13:55:45;;;;;;;8.55;1.42;;;;;;;;;;5014280;28;20220;-89
2022/03/17 13:58:19;;;;;;;8.68;2.08;;;;;;;;;;5009455;28;20041;-87
2022/03/17 14:00:47;;;;;;;9.50;1.80;;;;;;;;;;5009846;28;20038;-87
2022/03/17 14:03:16;;;;;;;10.15;2.22;;;;;;;;;;5005275;28;20038;-88
2022/03/17 14:06:02;;;;;;;9.18;1.77;;;;;;;;;;5012730;28;20546;-88
2022/03/17 14:08:28;;;;;;;8.52;1.90;;;;;;;;;;5010075;28;20490;-87
2022/03/17 14:10:56;;;;;;;6.32;1.45;;;;;;;;;;5019960;28;20108;-87
2022/03/17 14:13:22;;;;;;;7.93;2.10;;;;;;;;;;5013381;28;20108;-89
2022/03/17 14:15:49;;;;;;;8.25;1.95;;;;;;;;;;5009486;28;20041;-87
2022/03/17 14:18:19;;;;;;;8.48;1.90;;;;;;;;;;5010264;28;20050;-88
2022/03/17 14:20:45;;;;;;;7.05;1.67;;;;;;;;;;5021179;28;20099;-88
2022/03/17 14:25:56;;;;;;;8.68;2.03;;;;;;;;;;5014329;28;20045;-89
2022/03/17 14:28:22;;;;;;;6.22;1.33;;;;;;;;;;5030042;28;20136;-90
2022/03/17 14:30:48;;;;;;;6.50;1.50;;;;;;;;;;5029046;28;20038;-88
2022/03/17 14:33:14;;;;;;;6.80;1.70;;;;;;;;;;5029127;28;20080;-90
2022/03/17 14:35:41;;;;;;;8.52;1.60;;;;;;;;;;5010323;28;20073;-89
2022/03/17 14:38:07;;;;;;;6.07;1.40;;;;;;;;;;5011120;28;20430;-90
2022/03/17 14:40:33;;;;;;;7.35;1.67;;;;;;;;;;4994746;28;20077;-89
2022/03/17 14:42:59;;;;;;;10.40;2.67;;;;;;;;;;5010812;28;20049;-88
2022/03/17 14:45:26;;;;;;;7.15;1.77;;;;;;;;;;5028813;28;20083;-86
2022/03/17 14:47:52;;;;;;;6.97;1.40;;;;;;;;;;5013228;28;20533;-86
2022/03/17 14:50:18;;;;;;;6.57;1.50;;;;;;;;;;5013153;28;20038;-88
2022/03/17 14:52:47;;;;;;;9.02;1.70;;;;;;;;;;5012475;28;20549;-89
2022/03/17 14:55:13;;;;;;;6.80;1.48;;;;;;;;;;5013191;28;20046;-88
2022/03/17 14:57:39;;;;;;;9.32;1.85;;;;;;;;;;5022969;28;20072;-88
2022/03/17 15:00:05;;;;;;;10.00;2.25;;;;;;;;;;5029379;28;20033;-88
2022/03/17 15:02:32;;;;;;;6.72;1.55;;;;;;;;;;5034077;28;20037;-87
2022/03/17 15:04:58;;;;;;;8.35;2.22;;;;;;;;;;5016278;28;20042;-89
2022/03/17 15:07:24;;;;;;;8.18;1.60;;;;;;;;;;5039563;28;20483;-88
2022/03/17 15:09:50;;;;;;;8.30;1.98;;;;;;;;;;5041992;28;20405;-90
2022/03/17 15:12:17;;;;;;;6.93;1.60;;;;;;;;;;5015817;28;20044;-89
2022/03/17 15:14:43;;;;;;;6.55;1.60;;;;;;;;;;5033290;28;20060;-88
2022/03/17 15:17:09;;;;;;;8.10;1.70;;;;;;;;;;5014168;28;20453;-90
2022/03/17 15:19:35;;;;;;;8.52;1.63;;;;;;;;;;5029468;28;20037;-88
2022/03/17 15:22:02;;;;;;;8.27;2.00;;;;;;;;;;5014954;28;20045;-88
2022/03/17 15:24:28;;;;;;;6.03;1.27;;;;;;;;;;5013694;28;20099;-90
2022/03/17 15:30:07;;;;;;;7.65;1.58;;;;;;;;;;5035729;28;20030;-89
2022/03/17 15:32:26;;;;;;;6.88;1.65;;;;;;;;;;5030684;28;20041;-89
2022/03/17 15:34:52;;;;;;;8.77;1.60;;;;;;;;;;5022850;28;20043;-89
2022/03/17 15:37:18;;;;;;;7.25;1.48;;;;;;;;;;5028429;28;20056;-89
2022/03/17 15:39:44;;;;;;;5.75;1.75;;;;;;;;;;5030613;28;20072;-85
2022/03/17 15:42:10;;;;;;;6.85;1.40;;;;;;;;;;5035934;28;20053;-87
2022/03/17 15:44:36;;;;;;;6.03;1.58;;;;;;;;;;5036462;28;20124;-88
2022/03/17 15:47:02;;;;;;;8.18;1.95;;;;;;;;;;5042489;28;20125;-89
2022/03/17 15:49:28;;;;;;;8.38;1.50;;;;;;;;;;5012623;28;20034;-89
2022/03/17 15:51:54;;;;;;;5.80;1.42;;;;;;;;;;5022202;28;20385;-89
2022/03/17 15:54:20;;;;;;;9.10;1.80;;;;;;;;;;5033019;28;20041;-89
2022/03/17 15:56:47;;;;;;;8.30;1.70;;;;;;;;;;5013718;28;20588;-88
2022/03/17 15:59:13;;;;;;;7.18;1.65;;;;;;;;;;5026930;28;20073;-86
2022/03/17 16:01:39;;;;;;;5.82;1.60;;;;;;;;;;5026374;28;20037;-88
2022/03/17 16:04:11;;;;;;;9.82;1.73;;;;;;;;;;5038912;28;20045;-85
2022/03/17 16:06:38;;;;;;;10.32;1.67;;;;;;;;;;5013163;28;20041;-88
2022/03/17 16:09:04;;;;;;;9.07;1.67;;;;;;;;;;5013253;28;20124;-90
2022/03/17 16:14:33;;;;;;;6.78;1.48;;;;;;;;;;5035328;28;20160;-88
2022/03/17 16:17:00;;;;;;;6.22;1.40;;;;;;;;;;5025021;28;20095;-89
2022/03/17 16:19:27;;;;;;;6.18;1.63;;;;;;;;;;5025595;28;20072;-89